DAAGFZAA

Guest
Details From DAAG - Alger Houari Boumediene
To FZAA - Ndjili Intl
Flight Number -
Tags Generated
Created
Modified
Stats Distance 2,563 nm / 4,746 km
Max Altitude 0 ft / 0 m
Waypoints 3
Social Downloads 2
Likes 0
Share VATSIM

Download

Looking for another format? Having issues loading an existing format? Contact us
Advertisement - Login to hide

Notes

Generated

Route

DAAG KSA FZAA

ID Type Via Altitude Latitude Longitude Leg Dist Tot Dist Heading (true) Name
O DAAG APT - 0 ft / 0 m 36.69213˚ 3.17083˚ - 0 nm - -
KSA VOR - 0 ft / 0 m -4.40474˚ 15.41820˚ 2561 nm 2561 nm 162° / 165° NDJILI VOR-DME
O FZAA APT - 0 ft / 0 m -4.39717˚ 15.42672˚ 0 nm 2562 nm 48° / 48° -

Altitude Profile

Advertisement - Login to hide

Weather


0- 5 10 15 20 25 30 35+ Temperature / ° C

Clouds and Precipitation
Forecast for 2018-05-25 12:00 UTC. Updated 4 hours ago

Ground ~20,000 ft ~40,000 ft Winds

DAAG

Details ICAO DAAG (ALG)
Name Alger Houari Boumediene
Region Algeria
Timezone Africa/Algiers (UTC+1.0)
Stats Elevation 82 ft / 25 m (AMSL)
Location 36.697521° 3.213079°
Runways 2
Magnetic Variation 1.103° E

METAR

DAAG 251530Z 34010KT 300V010 9999 FEW020 SCT200 22/17 Q1013

Decode

TAF

TAF DAAG 251100Z 2512/2612 36010KT 9999 FEW020 SCT046 PROB30 TEMPO 2514/2520 FEW023TCU BKN015 BECMG 2516/2519 VRB02KT PROB30 2600/2606 3000 BR BKN010

Decode

Departure Runways

ID Width Length Bearing (true) Bearing (mag) Surface Threshold Offset Overrun Length
05 197 ft / 60 m 11,459 ft / 3,493 m 52.87° 51.77° Asphalt 0 ft / 0 m 0 ft / 0 m
09 148 ft / 45 m 11,442 ft / 3,487 m 91.75° 90.65° Asphalt 0 ft / 0 m 1,017 ft / 310 m
23 197 ft / 60 m 11,459 ft / 3,493 m 232.89° 231.79° Asphalt 0 ft / 0 m 0 ft / 0 m
27 148 ft / 45 m 11,442 ft / 3,487 m 271.78° 270.68° Asphalt 0 ft / 0 m 0 ft / 0 m

FZAA

Details ICAO FZAA (FIH)
Name NDJILI INTL
Region Democratic Republic of the Congo
Timezone Africa/Kinshasa (UTC+1.0)
Stats Elevation 1,027 ft / 313 m (AMSL)
Location -4.385750° 15.444570°
Runways 1
Magnetic Variation 1.267° W

METAR

FZAA 251500Z 36010KT 7000 FEW024 30/22 Q1009 NOSIG

Decode

TAF

TAF FZAA 251100Z 2512/2618 32010KT 8000 BKN020 BECMG 2514/2516 23004KT FEW018 BECMG 2606/2608 4000 BR BKN016 FM261100 28008KT 7000 NSW SCT022

Decode

Destination Runways

ID Width Length Bearing (true) Bearing (mag) Surface Threshold Offset Overrun Length
06 197 ft / 60 m 15,430 ft / 4,703 m 57.32° 58.59° Concrete 0 ft / 0 m 0 ft / 0 m
24 197 ft / 60 m 15,430 ft / 4,703 m 237.32° 238.59° Concrete 0 ft / 0 m 220 ft / 67 m

Approach Navaids

Runway Type Ident Frequency Range Bearing (true) Bearing (mag) Slope Elevation
24 Localiser KSA 110.30 MHz 18 nm / 33 km 235.17° 236.44° - 1,089 ft / 332 m (AMSL)
24 Glidescope KSA 110.30 MHz 10 nm / 19 km 237.32° 238.58° 2.80° 1,085 ft / 331 m (AMSL)